sensor_id;sensor_type;location;lat;lon;timestamp;temperature;humidity
32400;DHT22;45045;45.440;9.178;2023-04-30T00:02:07;22.90;97.30
32400;DHT22;45045;45.440;9.178;2023-04-30T00:04:32;23.00;97.20
32400;DHT22;45045;45.440;9.178;2023-04-30T00:06:58;22.90;97.60
32400;DHT22;45045;45.440;9.178;2023-04-30T00:09:24;23.00;97.50
32400;DHT22;45045;45.440;9.178;2023-04-30T00:11:49;23.10;97.40
32400;DHT22;45045;45.440;9.178;2023-04-30T00:14:15;23.00;97.20
32400;DHT22;45045;45.440;9.178;2023-04-30T00:16:40;23.00;97.40
32400;DHT22;45045;45.440;9.178;2023-04-30T00:19:06;23.00;97.20
32400;DHT22;45045;45.440;9.178;2023-04-30T00:21:32;23.00;97.40
32400;DHT22;45045;45.440;9.178;2023-04-30T00:23:58;23.00;97.40
32400;DHT22;45045;45.440;9.178;2023-04-30T00:26:27;22.90;97.60
32400;DHT22;45045;45.440;9.178;2023-04-30T00:28:52;23.00;97.70
32400;DHT22;45045;45.440;9.178;2023-04-30T00:31:18;22.90;97.70
32400;DHT22;45045;45.440;9.178;2023-04-30T00:33:43;22.90;98.00
32400;DHT22;45045;45.440;9.178;2023-04-30T00:36:09;23.00;97.80
32400;DHT22;45045;45.440;9.178;2023-04-30T00:38:35;22.90;98.00
32400;DHT22;45045;45.440;9.178;2023-04-30T00:41:00;22.90;98.00
32400;DHT22;45045;45.440;9.178;2023-04-30T00:43:26;22.80;97.90
32400;DHT22;45045;45.440;9.178;2023-04-30T00:45:52;22.90;98.10
32400;DHT22;45045;45.440;9.178;2023-04-30T00:48:17;22.80;98.00
32400;DHT22;45045;45.440;9.178;2023-04-30T00:50:43;22.90;97.80
32400;DHT22;45045;45.440;9.178;2023-04-30T00:53:12;22.90;98.00
32400;DHT22;45045;45.440;9.178;2023-04-30T00:55:38;22.90;98.20
32400;DHT22;45045;45.440;9.178;2023-04-30T00:58:04;23.00;98.10
32400;DHT22;45045;45.440;9.178;2023-04-30T01:00:30;22.90;98.20
32400;DHT22;45045;45.440;9.178;2023-04-30T01:02:56;22.80;97.90
32400;DHT22;45045;45.440;9.178;2023-04-30T01:05:22;22.90;98.20
32400;DHT22;45045;45.440;9.178;2023-04-30T01:07:47;22.90;98.10
32400;DHT22;45045;45.440;9.178;2023-04-30T01:10:13;22.90;98.20
32400;DHT22;45045;45.440;9.178;2023-04-30T01:12:53;22.90;97.90
32400;DHT22;45045;45.440;9.178;2023-04-30T01:20:14;22.80;98.20
32400;DHT22;45045;45.440;9.178;2023-04-30T01:25:32;22.70;98.30
32400;DHT22;45045;45.440;9.178;2023-04-30T01:28:12;22.80;98.40
32400;DHT22;45045;45.440;9.178;2023-04-30T01:30:39;22.70;98.40
32400;DHT22;45045;45.440;9.178;2023-04-30T01:33:05;22.80;98.20
32400;DHT22;45045;45.440;9.178;2023-04-30T01:38:01;22.70;98.20
32400;DHT22;45045;45.440;9.178;2023-04-30T01:40:37;22.60;98.50
32400;DHT22;45045;45.440;9.178;2023-04-30T01:51:15;22.80;98.40
32400;DHT22;45045;45.440;9.178;2023-04-30T01:53:44;22.70;98.30
32400;DHT22;45045;45.440;9.178;2023-04-30T01:58:55;22.30;98.70
32400;DHT22;45045;45.440;9.178;2023-04-30T02:01:24;22.20;99.20
32400;DHT22;45045;45.440;9.178;2023-04-30T02:03:50;22.40;99.10
32400;DHT22;45045;45.440;9.178;2023-04-30T02:06:16;22.40;99.10
32400;DHT22;45045;45.440;9.178;2023-04-30T02:08:41;22.30;99.30
32400;DHT22;45045;45.440;9.178;2023-04-30T02:11:07;22.40;99.00
32400;DHT22;45045;45.440;9.178;2023-04-30T02:13:33;22.40;99.00
32400;DHT22;45045;45.440;9.178;2023-04-30T02:15:58;22.40;99.00
32400;DHT22;45045;45.440;9.178;2023-04-30T02:18:24;22.50;98.90
32400;DHT22;45045;45.440;9.178;2023-04-30T02:20:50;22.50;98.80
32400;DHT22;45045;45.440;9.178;2023-04-30T02:23:15;22.60;98.70
32400;DHT22;45045;45.440;9.178;2023-04-30T02:25:41;22.60;98.40
32400;DHT22;45045;45.440;9.178;2023-04-30T02:28:06;22.60;98.70
32400;DHT22;45045;45.440;9.178;2023-04-30T02:30:32;22.70;98.60
32400;DHT22;45045;45.440;9.178;2023-04-30T02:32:57;22.70;98.40
32400;DHT22;45045;45.440;9.178;2023-04-30T02:35:23;22.50;98.10
32400;DHT22;45045;45.440;9.178;2023-04-30T02:37:49;22.10;98.80
32400;DHT22;45045;45.440;9.178;2023-04-30T02:40:14;22.20;99.40
32400;DHT22;45045;45.440;9.178;2023-04-30T02:42:40;22.20;99.50
32400;DHT22;45045;45.440;9.178;2023-04-30T02:45:05;22.20;99.60
32400;DHT22;45045;45.440;9.178;2023-04-30T02:47:31;22.10;99.50
32400;DHT22;45045;45.440;9.178;2023-04-30T02:49:57;22.10;99.80
32400;DHT22;45045;45.440;9.178;2023-04-30T02:52:22;22.20;99.50
32400;DHT22;45045;45.440;9.178;2023-04-30T02:54:48;22.40;99.20
32400;DHT22;45045;45.440;9.178;2023-04-30T02:57:14;22.30;99.30
32400;DHT22;45045;45.440;9.178;2023-04-30T02:59:39;22.30;99.30
32400;DHT22;45045;45.440;9.178;2023-04-30T03:02:10;22.30;99.10
32400;DHT22;45045;45.440;9.178;2023-04-30T03:04:35;22.40;99.10
32400;DHT22;45045;45.440;9.178;2023-04-30T03:07:01;22.20;99.10
32400;DHT22;45045;45.440;9.178;2023-04-30T03:09:29;22.10;99.60
32400;DHT22;45045;45.440;9.178;2023-04-30T03:11:54;22.20;99.70
32400;DHT22;45045;45.440;9.178;2023-04-30T03:14:20;22.20;99.50
32400;DHT22;45045;45.440;9.178;2023-04-30T03:16:45;22.30;99.40
32400;DHT22;45045;45.440;9.178;2023-04-30T03:19:11;22.40;99.20
32400;DHT22;45045;45.440;9.178;2023-04-30T03:21:36;22.30;99.30
32400;DHT22;45045;45.440;9.178;2023-04-30T03:24:02;22.40;99.20
32400;DHT22;45045;45.440;9.178;2023-04-30T03:26:28;22.50;99.00
32400;DHT22;45045;45.440;9.178;2023-04-30T03:28:53;22.50;98.90
32400;DHT22;45045;45.440;9.178;2023-04-30T03:31:20;22.50;98.90
32400;DHT22;45045;45.440;9.178;2023-04-30T03:33:45;22.50;98.80
32400;DHT22;45045;45.440;9.178;2023-04-30T03:36:11;22.40;98.70
32400;DHT22;45045;45.440;9.178;2023-04-30T03:38:37;22.40;99.00
32400;DHT22;45045;45.440;9.178;2023-04-30T03:41:02;22.10;99.20
32400;DHT22;45045;45.440;9.178;2023-04-30T03:43:28;22.00;99.80
32400;DHT22;45045;45.440;9.178;2023-04-30T03:45:54;22.20;99.60
32400;DHT22;45045;45.440;9.178;2023-04-30T03:48:19;21.70;99.80
32400;DHT22;45045;45.440;9.178;2023-04-30T03:50:45;21.50;99.90
32400;DHT22;45045;45.440;9.178;2023-04-30T03:53:11;21.40;99.90
32400;DHT22;45045;45.440;9.178;2023-04-30T03:55:37;21.40;99.90
32400;DHT22;45045;45.440;9.178;2023-04-30T03:58:02;21.30;99.90
32400;DHT22;45045;45.440;9.178;2023-04-30T04:00:28;21.50;99.90
32400;DHT22;45045;45.440;9.178;2023-04-30T04:02:54;21.80;99.90
32400;DHT22;45045;45.440;9.178;2023-04-30T04:05:21;22.00;99.90
32400;DHT22;45045;45.440;9.178;2023-04-30T04:07:47;22.10;99.90
32400;DHT22;45045;45.440;9.178;2023-04-30T04:10:13;22.20;99.90
32400;DHT22;45045;45.440;9.178;2023-04-30T04:12:38;22.20;99.80
32400;DHT22;45045;45.440;9.178;2023-04-30T04:15:04;22.20;99.40
32400;DHT22;45045;45.440;9.178;2023-04-30T04:17:30;22.20;99.60
32400;DHT22;45045;45.440;9.178;2023-04-30T04:19:56;22.20;99.50
32400;DHT22;45045;45.440;9.178;2023-04-30T04:22:21;22.30;99.50
32400;DHT22;45045;45.440;9.178;2023-04-30T04:24:47;22.30;99.30
32400;DHT22;45045;45.440;9.178;2023-04-30T04:27:12;22.30;99.40
32400;DHT22;45045;45.440;9.178;2023-04-30T04:29:38;22.40;99.30
32400;DHT22;45045;45.440;9.178;2023-04-30T04:32:04;22.20;99.00
32400;DHT22;45045;45.440;9.178;2023-04-30T04:34:30;22.20;99.40
32400;DHT22;45045;45.440;9.178;2023-04-30T04:36:56;22.10;99.70
32400;DHT22;45045;45.440;9.178;2023-04-30T04:39:23;22.20;99.60
32400;DHT22;45045;45.440;9.178;2023-04-30T04:41:48;22.10;99.70
32400;DHT22;45045;45.440;9.178;2023-04-30T04:44:14;22.10;99.70
32400;DHT22;45045;45.440;9.178;2023-04-30T04:46:39;22.00;99.70
32400;DHT22;45045;45.440;9.178;2023-04-30T04:49:08;22.00;99.90
32400;DHT22;45045;45.440;9.178;2023-04-30T04:51:34;22.00;99.90
32400;DHT22;45045;45.440;9.178;2023-04-30T04:54:00;22.00;99.90
32400;DHT22;45045;45.440;9.178;2023-04-30T04:56:25;22.10;99.90
32400;DHT22;45045;45.440;9.178;2023-04-30T04:58:51;22.10;99.70
32400;DHT22;45045;45.440;9.178;2023-04-30T05:01:17;22.20;99.70
32400;DHT22;45045;45.440;9.178;2023-04-30T05:03:42;22.20;99.60
32400;DHT22;45045;45.440;9.178;2023-04-30T05:06:08;22.10;99.50
32400;DHT22;45045;45.440;9.178;2023-04-30T05:08:34;21.80;99.90
32400;DHT22;45045;45.440;9.178;2023-04-30T05:10:59;21.70;99.90
32400;DHT22;45045;45.440;9.178;2023-04-30T05:13:25;21.70;99.90
32400;DHT22;45045;45.440;9.178;2023-04-30T05:15:51;21.70;99.90
32400;DHT22;45045;45.440;9.178;2023-04-30T05:18:17;21.80;99.90
32400;DHT22;45045;45.440;9.178;2023-04-30T05:20:42;21.60;99.90
32400;DHT22;45045;45.440;9.178;2023-04-30T05:23:08;21.60;99.90
32400;DHT22;45045;45.440;9.178;2023-04-30T05:25:36;21.60;99.90
32400;DHT22;45045;45.440;9.178;2023-04-30T05:28:02;21.60;99.90
32400;DHT22;45045;45.440;9.178;2023-04-30T05:30:28;21.50;99.90
32400;DHT22;45045;45.440;9.178;2023-04-30T05:32:54;21.30;99.90
32400;DHT22;45045;45.440;9.178;2023-04-30T05:35:20;21.10;99.90
32400;DHT22;45045;45.440;9.178;2023-04-30T05:37:46;20.90;99.90
32400;DHT22;45045;45.440;9.178;2023-04-30T05:40:11;20.80;99.90
32400;DHT22;45045;45.440;9.178;2023-04-30T05:42:37;20.70;99.90
32400;DHT22;45045;45.440;9.178;2023-04-30T05:45:05;20.70;99.90
32400;DHT22;45045;45.440;9.178;2023-04-30T05:47:31;20.50;99.90
32400;DHT22;45045;45.440;9.178;2023-04-30T05:49:56;20.60;99.90
32400;DHT22;45045;45.440;9.178;2023-04-30T05:52:22;20.80;99.90
32400;DHT22;45045;45.440;9.178;2023-04-30T05:54:47;20.80;99.90
32400;DHT22;45045;45.440;9.178;2023-04-30T05:57:13;20.90;99.90
32400;DHT22;45045;45.440;9.178;2023-04-30T05:59:39;21.00;99.90
32400;DHT22;45045;45.440;9.178;2023-04-30T06:02:04;21.10;99.90
32400;DHT22;45045;45.440;9.178;2023-04-30T06:04:30;21.30;99.90
32400;DHT22;45045;45.440;9.178;2023-04-30T06:06:56;21.30;99.90
32400;DHT22;45045;45.440;9.178;2023-04-30T06:09:21;21.10;99.90
32400;DHT22;45045;45.440;9.178;2023-04-30T06:11:47;21.20;99.90
32400;DHT22;45045;45.440;9.178;2023-04-30T06:14:15;21.10;99.90
32400;DHT22;45045;45.440;9.178;2023-04-30T06:16:41;21.10;99.90
32400;DHT22;45045;45.440;9.178;2023-04-30T06:19:06;20.90;99.90
32400;DHT22;45045;45.440;9.178;2023-04-30T06:21:32;21.10;99.90
32400;DHT22;45045;45.440;9.178;2023-04-30T06:23:57;21.10;99.90
32400;DHT22;45045;45.440;9.178;2023-04-30T06:26:23;21.10;99.90
32400;DHT22;45045;45.440;9.178;2023-04-30T06:28:49;21.00;99.90
32400;DHT22;45045;45.440;9.178;2023-04-30T06:31:14;20.90;99.90
32400;DHT22;45045;45.440;9.178;2023-04-30T06:33:40;20.90;99.90
32400;DHT22;45045;45.440;9.178;2023-04-30T06:36:05;21.20;99.90
32400;DHT22;45045;45.440;9.178;2023-04-30T06:38:31;21.40;99.90
32400;DHT22;45045;45.440;9.178;2023-04-30T06:40:57;21.40;99.90
32400;DHT22;45045;45.440;9.178;2023-04-30T06:43:22;21.60;99.90
32400;DHT22;45045;45.440;9.178;2023-04-30T06:45:48;21.70;99.90
32400;DHT22;45045;45.440;9.178;2023-04-30T06:48:14;21.80;99.90
32400;DHT22;45045;45.440;9.178;2023-04-30T06:50:39;21.70;99.90
32400;DHT22;45045;45.440;9.178;2023-04-30T06:53:12;21.40;99.90
32400;DHT22;45045;45.440;9.178;2023-04-30T06:55:38;21.30;99.90
32400;DHT22;45045;45.440;9.178;2023-04-30T06:58:04;21.50;99.90
32400;DHT22;45045;45.440;9.178;2023-04-30T07:00:32;21.70;99.90
32400;DHT22;45045;45.440;9.178;2023-04-30T07:02:58;22.00;99.90
32400;DHT22;45045;45.440;9.178;2023-04-30T07:05:29;22.00;99.90
32400;DHT22;45045;45.440;9.178;2023-04-30T07:07:55;22.00;99.90
32400;DHT22;45045;45.440;9.178;2023-04-30T07:10:21;22.10;99.90
32400;DHT22;45045;45.440;9.178;2023-04-30T07:12:46;22.20;99.90
32400;DHT22;45045;45.440;9.178;2023-04-30T07:15:12;22.10;99.60
32400;DHT22;45045;45.440;9.178;2023-04-30T07:17:37;22.20;99.40
32400;DHT22;45045;45.440;9.178;2023-04-30T07:20:06;22.00;98.90
32400;DHT22;45045;45.440;9.178;2023-04-30T07:22:32;21.80;99.10
32400;DHT22;45045;45.440;9.178;2023-04-30T07:24:58;21.60;98.60
32400;DHT22;45045;45.440;9.178;2023-04-30T07:27:25;21.40;99.00
32400;DHT22;45045;45.440;9.178;2023-04-30T07:29:50;21.60;98.80
32400;DHT22;45045;45.440;9.178;2023-04-30T07:32:16;21.60;98.80
32400;DHT22;45045;45.440;9.178;2023-04-30T07:34:42;21.90;98.70
32400;DHT22;45045;45.440;9.178;2023-04-30T07:37:08;22.00;97.30
32400;DHT22;45045;45.440;9.178;2023-04-30T07:39:34;22.00;95.00
32400;DHT22;45045;45.440;9.178;2023-04-30T07:42:01;21.90;94.60
32400;DHT22;45045;45.440;9.178;2023-04-30T07:44:27;21.70;94.50
32400;DHT22;45045;45.440;9.178;2023-04-30T07:46:52;21.60;94.50
32400;DHT22;45045;45.440;9.178;2023-04-30T07:49:18;21.70;94.50
32400;DHT22;45045;45.440;9.178;2023-04-30T07:51:44;21.80;94.30
32400;DHT22;45045;45.440;9.178;2023-04-30T07:54:10;22.00;94.00
32400;DHT22;45045;45.440;9.178;2023-04-30T07:56:35;22.00;94.30
32400;DHT22;45045;45.440;9.178;2023-04-30T07:59:01;21.80;93.20
32400;DHT22;45045;45.440;9.178;2023-04-30T08:01:27;21.80;93.70
32400;DHT22;45045;45.440;9.178;2023-04-30T08:03:52;21.80;93.30
32400;DHT22;45045;45.440;9.178;2023-04-30T08:06:18;22.10;93.90
32400;DHT22;45045;45.440;9.178;2023-04-30T08:08:44;22.30;93.20
32400;DHT22;45045;45.440;9.178;2023-04-30T08:11:10;22.50;92.40
32400;DHT22;45045;45.440;9.178;2023-04-30T08:13:36;22.40;91.00
32400;DHT22;45045;45.440;9.178;2023-04-30T08:16:02;22.40;90.60
32400;DHT22;45045;45.440;9.178;2023-04-30T08:18:28;22.40;91.00
32400;DHT22;45045;45.440;9.178;2023-04-30T08:20:53;22.40;90.30
32400;DHT22;45045;45.440;9.178;2023-04-30T08:23:19;22.30;90.10
32400;DHT22;45045;45.440;9.178;2023-04-30T08:25:44;22.40;90.00
32400;DHT22;45045;45.440;9.178;2023-04-30T08:28:10;22.40;90.00
32400;DHT22;45045;45.440;9.178;2023-04-30T08:30:35;22.40;90.00
32400;DHT22;45045;45.440;9.178;2023-04-30T08:33:01;22.20;90.00
32400;DHT22;45045;45.440;9.178;2023-04-30T08:35:27;22.20;90.70
32400;DHT22;45045;45.440;9.178;2023-04-30T08:37:54;22.20;90.60
32400;DHT22;45045;45.440;9.178;2023-04-30T08:40:19;22.20;90.00
32400;DHT22;45045;45.440;9.178;2023-04-30T08:42:45;22.20;89.20
32400;DHT22;45045;45.440;9.178;2023-04-30T08:45:13;22.10;90.00
32400;DHT22;45045;45.440;9.178;2023-04-30T08:47:39;22.20;90.20
32400;DHT22;45045;45.440;9.178;2023-04-30T08:50:06;22.30;89.00
32400;DHT22;45045;45.440;9.178;2023-04-30T08:52:33;22.50;90.00
32400;DHT22;45045;45.440;9.178;2023-04-30T08:54:59;22.80;89.60
32400;DHT22;45045;45.440;9.178;2023-04-30T08:57:25;23.00;88.90
32400;DHT22;45045;45.440;9.178;2023-04-30T08:59:52;23.10;88.80
32400;DHT22;45045;45.440;9.178;2023-04-30T09:02:18;23.20;85.20
32400;DHT22;45045;45.440;9.178;2023-04-30T09:04:44;23.20;85.90
32400;DHT22;45045;45.440;9.178;2023-04-30T09:07:11;23.30;86.00
32400;DHT22;45045;45.440;9.178;2023-04-30T09:09:38;23.40;86.00
32400;DHT22;45045;45.440;9.178;2023-04-30T09:12:17;23.40;84.30
32400;DHT22;45045;45.440;9.178;2023-04-30T09:15:03;23.40;84.80
32400;DHT22;45045;45.440;9.178;2023-04-30T09:17:29;23.50;84.40
32400;DHT22;45045;45.440;9.178;2023-04-30T09:20:04;23.70;83.60
32400;DHT22;45045;45.440;9.178;2023-04-30T09:22:31;23.70;82.60
32400;DHT22;45045;45.440;9.178;2023-04-30T09:24:56;23.50;83.10
32400;DHT22;45045;45.440;9.178;2023-04-30T09:27:22;23.50;84.00
32400;DHT22;45045;45.440;9.178;2023-04-30T09:29:47;23.60;83.40
32400;DHT22;45045;45.440;9.178;2023-04-30T09:32:13;23.80;83.60
32400;DHT22;45045;45.440;9.178;2023-04-30T09:34:39;23.90;82.70
32400;DHT22;45045;45.440;9.178;2023-04-30T09:37:05;23.80;81.60
32400;DHT22;45045;45.440;9.178;2023-04-30T09:39:31;23.90;82.60
32400;DHT22;45045;45.440;9.178;2023-04-30T09:42:07;23.90;81.60
32400;DHT22;45045;45.440;9.178;2023-04-30T09:44:36;23.90;83.00
32400;DHT22;45045;45.440;9.178;2023-04-30T09:47:02;24.00;81.60
32400;DHT22;45045;45.440;9.178;2023-04-30T09:49:27;24.10;81.90
32400;DHT22;45045;45.440;9.178;2023-04-30T09:51:59;24.20;81.40
32400;DHT22;45045;45.440;9.178;2023-04-30T09:54:28;24.30;81.00
32400;DHT22;45045;45.440;9.178;2023-04-30T09:56:54;24.30;81.50
32400;DHT22;45045;45.440;9.178;2023-04-30T09:59:26;24.20;79.60
32400;DHT22;45045;45.440;9.178;2023-04-30T10:01:52;24.20;81.50
32400;DHT22;45045;45.440;9.178;2023-04-30T10:04:18;24.20;80.50
32400;DHT22;45045;45.440;9.178;2023-04-30T10:06:45;24.30;80.90
32400;DHT22;45045;45.440;9.178;2023-04-30T10:09:11;24.50;81.30
32400;DHT22;45045;45.440;9.178;2023-04-30T10:11:40;24.50;80.80
32400;DHT22;45045;45.440;9.178;2023-04-30T10:14:11;24.60;81.40
32400;DHT22;45045;45.440;9.178;2023-04-30T10:19:22;24.60;81.60
32400;DHT22;45045;45.440;9.178;2023-04-30T10:21:48;24.60;81.50
32400;DHT22;45045;45.440;9.178;2023-04-30T10:24:14;24.70;80.40
32400;DHT22;45045;45.440;9.178;2023-04-30T10:26:42;24.60;80.50
32400;DHT22;45045;45.440;9.178;2023-04-30T10:29:09;24.40;80.80
32400;DHT22;45045;45.440;9.178;2023-04-30T10:31:34;24.40;81.30
32400;DHT22;45045;45.440;9.178;2023-04-30T10:36:37;24.60;80.90
32400;DHT22;45045;45.440;9.178;2023-04-30T10:39:05;24.80;81.00
32400;DHT22;45045;45.440;9.178;2023-04-30T10:41:31;25.00;80.10
32400;DHT22;45045;45.440;9.178;2023-04-30T10:43:57;25.10;80.30
32400;DHT22;45045;45.440;9.178;2023-04-30T10:46:25;24.90;80.50
32400;DHT22;45045;45.440;9.178;2023-04-30T10:48:53;25.10;79.90
32400;DHT22;45045;45.440;9.178;2023-04-30T10:51:21;25.10;80.40
32400;DHT22;45045;45.440;9.178;2023-04-30T10:53:50;25.10;79.50
32400;DHT22;45045;45.440;9.178;2023-04-30T10:56:30;25.20;79.80
32400;DHT22;45045;45.440;9.178;2023-04-30T10:58:59;25.20;80.00
32400;DHT22;45045;45.440;9.178;2023-04-30T11:01:27;25.30;80.10
32400;DHT22;45045;45.440;9.178;2023-04-30T11:04:08;25.30;79.50
32400;DHT22;45045;45.440;9.178;2023-04-30T11:45:15;22.80;90.60
32400;DHT22;45045;45.440;9.178;2023-04-30T11:47:51;23.90;88.80
32400;DHT22;45045;45.440;9.178;2023-04-30T11:50:23;24.00;88.40
32400;DHT22;45045;45.440;9.178;2023-04-30T11:52:56;24.20;87.70
32400;DHT22;45045;45.440;9.178;2023-04-30T11:55:23;24.20;87.20
32400;DHT22;45045;45.440;9.178;2023-04-30T11:57:51;24.40;87.40
32400;DHT22;45045;45.440;9.178;2023-04-30T12:00:20;24.40;86.20
32400;DHT22;45045;45.440;9.178;2023-04-30T12:02:47;24.50;85.70
32400;DHT22;45045;45.440;9.178;2023-04-30T12:05:21;24.50;85.20
32400;DHT22;45045;45.440;9.178;2023-04-30T12:07:53;24.60;85.40
32400;DHT22;45045;45.440;9.178;2023-04-30T12:10:21;24.70;84.80
32400;DHT22;45045;45.440;9.178;2023-04-30T12:12:48;24.60;84.80
32400;DHT22;45045;45.440;9.178;2023-04-30T12:15:16;24.70;84.50
32400;DHT22;45045;45.440;9.178;2023-04-30T12:17:43;24.60;84.60
32400;DHT22;45045;45.440;9.178;2023-04-30T12:20:09;24.70;84.60
32400;DHT22;45045;45.440;9.178;2023-04-30T12:22:36;24.80;84.60
32400;DHT22;45045;45.440;9.178;2023-04-30T12:25:10;24.70;84.50
32400;DHT22;45045;45.440;9.178;2023-04-30T12:27:39;24.70;85.00
32400;DHT22;45045;45.440;9.178;2023-04-30T12:30:05;24.70;84.80
32400;DHT22;45045;45.440;9.178;2023-04-30T12:32:44;24.80;84.80
32400;DHT22;45045;45.440;9.178;2023-04-30T12:35:16;24.70;84.60
32400;DHT22;45045;45.440;9.178;2023-04-30T12:37:46;24.70;85.10
32400;DHT22;45045;45.440;9.178;2023-04-30T12:40:12;24.70;84.60
32400;DHT22;45045;45.440;9.178;2023-04-30T12:42:42;24.80;84.20
32400;DHT22;45045;45.440;9.178;2023-04-30T12:45:09;24.70;84.20
32400;DHT22;45045;45.440;9.178;2023-04-30T12:47:39;24.70;84.10
32400;DHT22;45045;45.440;9.178;2023-04-30T12:50:09;24.70;84.80
32400;DHT22;45045;45.440;9.178;2023-04-30T12:52:38;24.70;84.50
32400;DHT22;45045;45.440;9.178;2023-04-30T12:55:18;24.80;84.20
32400;DHT22;45045;45.440;9.178;2023-04-30T12:58:08;24.80;85.00
32400;DHT22;45045;45.440;9.178;2023-04-30T13:00:50;24.80;84.20
32400;DHT22;45045;45.440;9.178;2023-04-30T13:03:20;25.00;84.00
32400;DHT22;45045;45.440;9.178;2023-04-30T13:05:52;24.90;83.70
32400;DHT22;45045;45.440;9.178;2023-04-30T13:08:19;24.80;83.50
32400;DHT22;45045;45.440;9.178;2023-04-30T13:10:45;24.90;84.20
32400;DHT22;45045;45.440;9.178;2023-04-30T13:13:12;24.80;84.10
32400;DHT22;45045;45.440;9.178;2023-04-30T13:15:38;24.80;84.10
32400;DHT22;45045;45.440;9.178;2023-04-30T13:18:06;24.90;84.10
32400;DHT22;45045;45.440;9.178;2023-04-30T13:20:34;25.00;83.80
32400;DHT22;45045;45.440;9.178;2023-04-30T13:23:00;25.00;83.50
32400;DHT22;45045;45.440;9.178;2023-04-30T13:25:26;24.80;83.80
32400;DHT22;45045;45.440;9.178;2023-04-30T13:27:51;24.60;84.40
32400;DHT22;45045;45.440;9.178;2023-04-30T13:30:17;24.50;85.20
32400;DHT22;45045;45.440;9.178;2023-04-30T13:32:43;24.50;85.10
32400;DHT22;45045;45.440;9.178;2023-04-30T13:35:10;24.70;84.80
32400;DHT22;45045;45.440;9.178;2023-04-30T13:37:36;25.00;84.30
32400;DHT22;45045;45.440;9.178;2023-04-30T13:40:05;25.00;84.10
32400;DHT22;45045;45.440;9.178;2023-04-30T13:42:31;25.00;83.60
32400;DHT22;45045;45.440;9.178;2023-04-30T13:44:57;25.10;84.10
32400;DHT22;45045;45.440;9.178;2023-04-30T13:47:23;25.20;83.70
32400;DHT22;45045;45.440;9.178;2023-04-30T13:49:48;25.00;82.20
32400;DHT22;45045;45.440;9.178;2023-04-30T13:52:14;24.90;83.10
32400;DHT22;45045;45.440;9.178;2023-04-30T13:54:40;24.90;82.40
32400;DHT22;45045;45.440;9.178;2023-04-30T13:57:06;24.80;82.70
32400;DHT22;45045;45.440;9.178;2023-04-30T13:59:32;24.70;82.40
32400;DHT22;45045;45.440;9.178;2023-04-30T14:01:58;24.90;82.40
32400;DHT22;45045;45.440;9.178;2023-04-30T14:04:24;24.90;82.10
32400;DHT22;45045;45.440;9.178;2023-04-30T14:06:50;24.80;83.20
32400;DHT22;45045;45.440;9.178;2023-04-30T14:09:16;24.90;82.90
32400;DHT22;45045;45.440;9.178;2023-04-30T14:11:42;24.80;83.20
32400;DHT22;45045;45.440;9.178;2023-04-30T14:14:08;24.60;83.70
32400;DHT22;45045;45.440;9.178;2023-04-30T14:16:33;24.60;83.90
32400;DHT22;45045;45.440;9.178;2023-04-30T14:18:59;24.70;84.10
32400;DHT22;45045;45.440;9.178;2023-04-30T14:21:25;24.60;83.40
32400;DHT22;45045;45.440;9.178;2023-04-30T14:23:53;24.70;83.50
32400;DHT22;45045;45.440;9.178;2023-04-30T14:26:19;24.90;83.30
32400;DHT22;45045;45.440;9.178;2023-04-30T14:28:46;24.80;83.20
32400;DHT22;45045;45.440;9.178;2023-04-30T14:31:12;24.90;83.30
32400;DHT22;45045;45.440;9.178;2023-04-30T14:33:38;24.90;83.60
32400;DHT22;45045;45.440;9.178;2023-04-30T14:36:04;24.80;83.50
32400;DHT22;45045;45.440;9.178;2023-04-30T14:38:30;24.90;83.60
32400;DHT22;45045;45.440;9.178;2023-04-30T14:40:56;24.90;83.70
32400;DHT22;45045;45.440;9.178;2023-04-30T14:43:21;24.90;83.80
32400;DHT22;45045;45.440;9.178;2023-04-30T14:45:48;25.00;83.70
32400;DHT22;45045;45.440;9.178;2023-04-30T14:48:14;25.00;83.20
32400;DHT22;45045;45.440;9.178;2023-04-30T14:50:39;25.10;82.90
32400;DHT22;45045;45.440;9.178;2023-04-30T14:53:05;24.80;84.10
32400;DHT22;45045;45.440;9.178;2023-04-30T14:55:31;24.70;84.20
32400;DHT22;45045;45.440;9.178;2023-04-30T14:58:00;24.80;84.20
32400;DHT22;45045;45.440;9.178;2023-04-30T15:00:26;24.80;84.20
32400;DHT22;45045;45.440;9.178;2023-04-30T15:02:52;24.90;84.30
32400;DHT22;45045;45.440;9.178;2023-04-30T15:05:18;24.90;83.70
32400;DHT22;45045;45.440;9.178;2023-04-30T15:07:43;24.90;83.70
32400;DHT22;45045;45.440;9.178;2023-04-30T15:10:09;25.00;83.70
32400;DHT22;45045;45.440;9.178;2023-04-30T15:12:35;25.00;83.40
32400;DHT22;45045;45.440;9.178;2023-04-30T15:15:02;25.00;83.60
32400;DHT22;45045;45.440;9.178;2023-04-30T15:17:29;24.90;83.50
32400;DHT22;45045;45.440;9.178;2023-04-30T15:19:56;25.00;83.30
32400;DHT22;45045;45.440;9.178;2023-04-30T15:22:25;25.10;83.40
32400;DHT22;45045;45.440;9.178;2023-04-30T15:24:51;25.10;82.80
32400;DHT22;45045;45.440;9.178;2023-04-30T15:27:17;25.00;82.80
32400;DHT22;45045;45.440;9.178;2023-04-30T15:29:43;24.90;83.00
32400;DHT22;45045;45.440;9.178;2023-04-30T15:32:11;25.00;82.70
32400;DHT22;45045;45.440;9.178;2023-04-30T15:34:37;25.00;82.70
32400;DHT22;45045;45.440;9.178;2023-04-30T15:37:03;25.00;82.60
32400;DHT22;45045;45.440;9.178;2023-04-30T15:39:28;25.00;83.40
32400;DHT22;45045;45.440;9.178;2023-04-30T15:41:54;24.80;82.80
32400;DHT22;45045;45.440;9.178;2023-04-30T15:44:20;24.80;83.30
32400;DHT22;45045;45.440;9.178;2023-04-30T15:46:46;24.90;82.90
32400;DHT22;45045;45.440;9.178;2023-04-30T15:49:12;24.90;82.80
32400;DHT22;45045;45.440;9.178;2023-04-30T15:51:38;24.90;82.10
32400;DHT22;45045;45.440;9.178;2023-04-30T15:54:03;25.00;82.60
32400;DHT22;45045;45.440;9.178;2023-04-30T15:56:33;25.00;82.20
32400;DHT22;45045;45.440;9.178;2023-04-30T15:59:00;25.00;81.40
32400;DHT22;45045;45.440;9.178;2023-04-30T16:01:25;24.90;81.80
32400;DHT22;45045;45.440;9.178;2023-04-30T16:03:51;24.90;82.50
32400;DHT22;45045;45.440;9.178;2023-04-30T16:06:17;24.90;82.70
32400;DHT22;45045;45.440;9.178;2023-04-30T16:08:43;24.80;83.30
32400;DHT22;45045;45.440;9.178;2023-04-30T16:11:10;24.80;83.80
32400;DHT22;45045;45.440;9.178;2023-04-30T16:13:36;24.90;83.60
32400;DHT22;45045;45.440;9.178;2023-04-30T16:16:03;24.80;83.80
32400;DHT22;45045;45.440;9.178;2023-04-30T16:18:29;24.80;84.00
32400;DHT22;45045;45.440;9.178;2023-04-30T16:20:55;24.70;84.20
32400;DHT22;45045;45.440;9.178;2023-04-30T16:23:21;24.80;84.50
32400;DHT22;45045;45.440;9.178;2023-04-30T16:25:47;24.70;84.60
32400;DHT22;45045;45.440;9.178;2023-04-30T16:28:13;24.60;85.10
32400;DHT22;45045;45.440;9.178;2023-04-30T16:30:38;24.70;84.90
32400;DHT22;45045;45.440;9.178;2023-04-30T16:33:04;24.80;84.80